Sarajevo International Airport Sarajevo BA
ICAO: LQSA
IATA: SJJ
Category: Large
Scheduled Services: Yes

Elevation: 1708 ft
TransAlt. 9500 ft.

Airport Communications:
APP:136.45
GCA:119.4
GND:121.9
TWR:118.25

LQSA Zoom In..

Runways:

(A) RW 12 length 8530 ft width 148 ft
ILS 110.70 / hdg 115

(B) RW 30 length 8530 ft width 148 ft
---- / hdg 295

Location; LQSA
Day. 27 / Time. 15.30 Zulu
* QNH: 1008
* Temperature: 15° c. 59°f.
* Wind from: 120° Speed 03 kn.
Dewpoint: 13° c.
Visibility: 10 km or more.
Clouds: Few 3000 ft.
Clouds: Broken 6000 ft.
No significant changes expected in the near future.

LQSA 271530Z 12003KT 090V150 9999 FEW030 BKN060 15/13 Q1008 NOSIG

Going to: --> -->


Wind From 120°
Speed 03 kn.

 
 
jpsmedia worldairports.se 2020   terms of use